Time;durP1;ratioP1;P1;durP2;ratioP2;P2;SDS_P1;SDS_P2;PMS_P1;PMS_P2;Temp;Humidity;BMP_temperature;BMP_pressure;BME280_temperature;BME280_humidity;BME280_pressure;Samples;Min_cycle;Max_cycle;Signal;HPM_P1;HPM_P2
2022/04/30 00:02:06;;;;;;;;;;;;;;;10.17;55.41;101658.34;4948954;29;5473;-92
2022/04/30 00:04:32;;;;;;;;;;;;;;;10.16;55.41;101657.53;4937331;29;5602;-93
2022/04/30 00:06:59;;;;;;;;;;;;;;;10.15;55.44;101657.72;4933780;29;2370;-93
2022/04/30 00:09:25;;;;;;;;;;;;;;;10.16;55.42;101656.69;4946543;29;2065;-92
2022/04/30 00:11:51;;;;;;;;;;;;;;;10.14;55.63;101664.94;4926963;29;3448;-92
2022/04/30 00:14:18;;;;;;;;;;;;;;;10.14;55.48;101664.13;4929480;29;5472;-92
2022/04/30 00:16:44;;;;;;;;;;;;;;;10.13;55.49;101671.38;4933672;29;2403;-92
2022/04/30 00:19:10;;;;;;;;;;;;;;;10.13;55.34;101666.00;4927282;29;5572;-92
2022/04/30 00:21:36;;;;;;;;;;;;;;;10.12;55.48;101671.56;4925255;29;2108;-92
2022/04/30 00:24:03;;;;;;;;;;;;;;;10.12;55.32;101664.31;4937880;29;2277;-92
2022/04/30 00:26:29;;;;;;;;;;;;;;;10.11;55.47;101659.94;4948671;29;2952;-93
2022/04/30 00:28:55;;;;;;;;;;;;;;;10.10;55.31;101652.91;4920982;29;5551;-92
2022/04/30 00:31:22;;;;;;;;;;;;;;;10.10;55.33;101658.28;4931388;29;2076;-92
2022/04/30 00:33:48;;;;;;;;;;;;;;;10.08;55.40;101654.94;4929583;29;5784;-93
2022/04/30 00:36:15;;;;;;;;;;;;;;;10.09;55.34;101653.09;4939208;29;2054;-92
2022/04/30 00:38:41;;;;;;;;;;;;;;;10.08;55.38;101654.13;4933448;29;5400;-92
2022/04/30 00:41:08;;;;;;;;;;;;;;;10.07;55.28;101655.97;4952798;29;2947;-92
2022/04/30 00:43:34;;;;;;;;;;;;;;;10.06;55.26;101650.78;4927000;29;5512;-92
2022/04/30 00:46:00;;;;;;;;;;;;;;;10.06;55.15;101648.94;4932918;29;5074;-92
2022/04/30 00:48:28;;;;;;;;;;;;;;;10.05;55.26;101651.81;4953054;29;5232;-92
2022/04/30 00:50:54;;;;;;;;;;;;;;;10.04;55.12;101652.84;4938902;28;1963;-92
2022/04/30 00:53:21;;;;;;;;;;;;;;;10.03;55.18;101652.00;4952220;28;2774;-92
2022/04/30 00:55:47;;;;;;;;;;;;;;;10.03;55.29;101643.94;4952807;29;2028;-92
2022/04/30 00:58:13;;;;;;;;;;;;;;;10.02;55.12;101648.47;4944365;28;5529;-93
2022/04/30 01:00:42;;;;;;;;;;;;;;;10.01;55.34;101649.50;4936818;29;5502;-92
2022/04/30 01:03:08;;;;;;;;;;;;;;;10.01;55.14;101654.88;4933240;29;5122;-92
2022/04/30 01:05:35;;;;;;;;;;;;;;;10.01;55.32;101651.34;4937899;29;1980;-93
2022/04/30 01:08:01;;;;;;;;;;;;;;;9.99;55.08;101654.22;4932701;29;2483;-92
2022/04/30 01:10:28;;;;;;;;;;;;;;;9.99;55.34;101645.31;4928956;29;2079;-93
2022/04/30 01:12:54;;;;;;;;;;;;;;;9.99;55.22;101648.00;4930082;29;5516;-92
2022/04/30 01:15:21;;;;;;;;;;;;;;;9.99;55.27;101650.69;4952866;29;1727;-93
2022/04/30 01:17:47;;;;;;;;;;;;;;;9.97;55.25;101652.72;4952639;29;2289;-92
2022/04/30 01:20:13;;;;;;;;;;;;;;;9.96;55.28;101651.06;4933486;28;1895;-92
2022/04/30 01:22:40;;;;;;;;;;;;;;;9.95;55.07;101652.94;4937288;29;2817;-92
2022/04/30 01:25:06;;;;;;;;;;;;;;;9.96;55.06;101653.78;4930384;29;5500;-92
2022/04/30 01:27:33;;;;;;;;;;;;;;;9.95;55.13;101654.81;4939053;29;2168;-92
2022/04/30 01:29:59;;;;;;;;;;;;;;;9.94;55.11;101659.34;4942854;29;5331;-92
2022/04/30 01:37:53;;;;;;;;;;;;;;;9.92;55.11;101665.94;4939891;29;5616;-92
2022/04/30 01:40:19;;;;;;;;;;;;;;;9.91;55.11;101665.13;4940863;29;5388;-92
2022/04/30 01:42:46;;;;;;;;;;;;;;;9.90;55.13;101668.81;4940567;29;2174;-92
2022/04/30 01:45:13;;;;;;;;;;;;;;;9.90;55.09;101662.59;4937988;29;2211;-92
2022/04/30 01:47:39;;;;;;;;;;;;;;;9.90;55.05;101660.75;4934947;29;5616;-93
2022/04/30 01:50:05;;;;;;;;;;;;;;;9.89;55.21;101663.63;4939063;29;5874;-92
2022/04/30 01:52:32;;;;;;;;;;;;;;;9.88;54.92;101662.81;4935917;29;2472;-92
2022/04/30 01:54:58;;;;;;;;;;;;;;;9.87;55.07;101666.50;4936878;29;5071;-92
2022/04/30 01:57:26;;;;;;;;;;;;;;;9.87;54.95;101657.59;4933975;29;2888;-92
2022/04/30 01:59:52;;;;;;;;;;;;;;;9.86;55.04;101656.75;4939287;29;2000;-93
2022/04/30 02:02:19;;;;;;;;;;;;;;;9.86;55.15;101658.63;4932917;29;5533;-92
2022/04/30 02:04:45;;;;;;;;;;;;;;;9.84;54.86;101655.28;4932159;29;5462;-93
2022/04/30 02:07:12;;;;;;;;;;;;;;;9.84;55.14;101657.97;4938428;28;2250;-93
2022/04/30 02:09:38;;;;;;;;;;;;;;;9.83;55.11;101656.31;4940849;29;2345;-92
2022/04/30 02:12:04;;;;;;;;;;;;;;;9.82;54.98;101651.94;4936977;29;2742;-93
2022/04/30 02:14:31;;;;;;;;;;;;;;;9.81;55.09;101655.66;4938051;29;2042;-94
2022/04/30 02:16:57;;;;;;;;;;;;;;;9.81;55.04;101653.81;4927518;29;4107;-93
2022/04/30 02:19:23;;;;;;;;;;;;;;;9.80;54.84;101667.44;4938544;29;5788;-92
2022/04/30 02:21:50;;;;;;;;;;;;;;;9.79;54.96;101669.28;4951417;29;2151;-93
2022/04/30 02:24:16;;;;;;;;;;;;;;;9.78;55.04;101668.44;4940365;29;5165;-93
2022/04/30 02:26:43;;;;;;;;;;;;;;;9.77;55.03;101666.78;4950318;29;2085;-93
2022/04/30 02:29:10;;;;;;;;;;;;;;;9.77;54.92;101668.66;4930224;29;5509;-93
2022/04/30 02:31:36;;;;;;;;;;;;;;;9.76;54.89;101664.28;4942237;29;1952;-93
2022/04/30 02:34:02;;;;;;;;;;;;;;;9.75;54.98;101654.56;4936521;29;5171;-92
2022/04/30 02:36:30;;;;;;;;;;;;;;;9.75;55.00;101655.38;4947446;28;1639;-92
2022/04/30 02:38:56;;;;;;;;;;;;;;;9.74;54.77;101658.28;4943706;29;2815;-93
2022/04/30 02:41:23;;;;;;;;;;;;;;;9.73;54.77;101652.03;4952512;28;1978;-93
2022/04/30 02:43:50;;;;;;;;;;;;;;;9.73;54.71;101652.03;4934145;29;5482;-92
2022/04/30 02:46:16;;;;;;;;;;;;;;;9.73;54.96;101648.50;4931915;29;1922;-93
2022/04/30 02:48:42;;;;;;;;;;;;;;;9.72;54.94;101652.22;4933689;29;5205;-92
2022/04/30 02:51:10;;;;;;;;;;;;;;;9.71;55.01;101646.03;4941406;29;1603;-93
2022/04/30 02:53:36;;;;;;;;;;;;;;;9.70;54.84;101654.28;4924535;29;5545;-93
2022/04/30 02:56:03;;;;;;;;;;;;;;;9.69;54.91;101655.31;4936746;28;5751;-93
2022/04/30 03:01:13;;;;;;;;;;;;;;;9.67;54.75;101650.09;4951390;29;5174;-93
2022/04/30 03:03:40;;;;;;;;;;;;;;;9.68;54.73;101650.94;4937719;29;2877;-93
2022/04/30 03:06:07;;;;;;;;;;;;;;;9.67;54.72;101646.56;4938351;29;1989;-92
2022/04/30 03:08:33;;;;;;;;;;;;;;;9.65;54.78;101641.41;4935133;29;5484;-93
2022/04/30 03:11:00;;;;;;;;;;;;;;;9.64;54.68;101645.09;4939045;29;5231;-93
2022/04/30 03:13:27;;;;;;;;;;;;;;;9.63;54.73;101640.75;4932998;29;5112;-92
2022/04/30 03:15:53;;;;;;;;;;;;;;;9.63;54.74;101638.06;4939812;29;1680;-92
2022/04/30 03:23:48;;;;;;;;;;;;;;;9.61;54.76;101640.09;4928317;29;5598;-93
2022/04/30 03:26:15;;;;;;;;;;;;;;;9.59;54.79;101634.09;4933419;29;2054;-92
2022/04/30 03:28:42;;;;;;;;;;;;;;;9.59;54.79;101636.78;4932908;29;5305;-92
2022/04/30 03:31:09;;;;;;;;;;;;;;;9.58;54.50;101636.94;4954482;29;2102;-92
2022/04/30 03:33:35;;;;;;;;;;;;;;;9.59;54.66;101633.22;4929847;29;2741;-92
2022/04/30 03:36:02;;;;;;;;;;;;;;;9.58;54.71;101634.25;4923883;29;2016;-92
2022/04/30 03:38:28;;;;;;;;;;;;;;;9.57;54.71;101637.97;4932809;29;5595;-92
2022/04/30 03:40:54;;;;;;;;;;;;;;;9.56;54.59;101637.16;4938897;29;5763;-92
2022/04/30 03:43:21;;;;;;;;;;;;;;;9.56;54.59;101639.84;4925712;29;5171;-92
2022/04/30 03:45:48;;;;;;;;;;;;;;;9.55;54.63;101641.66;4946097;29;1986;-93
2022/04/30 03:48:15;;;;;;;;;;;;;;;9.54;54.78;101633.78;4932479;29;5620;-93
2022/04/30 03:50:41;;;;;;;;;;;;;;;9.53;54.66;101630.28;4937115;29;5538;-93
2022/04/30 03:53:08;;;;;;;;;;;;;;;9.52;54.63;101641.22;4941865;28;5111;-92
2022/04/30 03:55:34;;;;;;;;;;;;;;;9.51;54.58;101637.69;4955028;29;2509;-93
2022/04/30 03:58:00;;;;;;;;;;;;;;;9.51;54.78;101645.75;4932947;29;2832;-92
2022/04/30 04:00:27;;;;;;;;;;;;;;;9.51;54.70;101639.56;4929391;29;1888;-93
2022/04/30 04:02:53;;;;;;;;;;;;;;;9.49;54.50;101641.59;4933995;28;5569;-92
2022/04/30 04:05:19;;;;;;;;;;;;;;;9.49;54.64;101637.03;4930438;29;5586;-92
2022/04/30 04:07:46;;;;;;;;;;;;;;;9.49;54.41;101637.03;4939764;29;2235;-92
2022/04/30 04:10:12;;;;;;;;;;;;;;;9.49;54.73;101641.59;4938094;29;5532;-92
2022/04/30 04:12:39;;;;;;;;;;;;;;;9.47;54.57;101640.91;4933975;29;2818;-93
2022/04/30 04:17:49;;;;;;;;;;;;;;;9.47;54.65;101643.63;4931983;29;5602;-93
2022/04/30 04:20:17;;;;;;;;;;;;;;;9.40;54.66;101635.47;4928835;29;5441;-92
2022/04/30 04:22:44;;;;;;;;;;;;;;;9.45;54.63;101648.38;4955447;29;2237;-93
2022/04/30 04:27:55;;;;;;;;;;;;;;;9.44;54.60;101639.47;4929094;29;5474;-93
2022/04/30 04:30:22;;;;;;;;;;;;;;;9.43;54.49;101648.53;4922512;29;2014;-92
2022/04/30 04:32:48;;;;;;;;;;;;;;;9.43;54.51;101645.84;4916355;29;5653;-92
2022/04/30 04:35:15;;;;;;;;;;;;;;;9.42;54.51;101641.50;4930313;29;5437;-92
2022/04/30 04:37:41;;;;;;;;;;;;;;;9.40;54.58;101646.22;4938230;29;2885;-93
2022/04/30 04:40:08;;;;;;;;;;;;;;;9.40;54.50;101645.38;4930121;29;5481;-93
2022/04/30 04:42:34;;;;;;;;;;;;;;;9.39;54.55;101643.72;4931098;29;5556;-92
2022/04/30 04:45:00;;;;;;;;;;;;;;;9.38;54.42;101650.94;4936301;29;5716;-93
2022/04/30 04:47:26;;;;;;;;;;;;;;;9.38;54.66;101658.16;4936875;29;2233;-93
2022/04/30 04:49:53;;;;;;;;;;;;;;;9.38;54.40;101645.56;4921750;29;1203;-93
2022/04/30 04:52:19;;;;;;;;;;;;;;;9.38;54.50;101650.09;4933597;29;5434;-93
2022/04/30 04:54:46;;;;;;;;;;;;;;;9.38;54.57;101658.16;4922715;29;5274;-92
2022/04/30 04:57:12;;;;;;;;;;;;;;;9.36;54.47;101647.63;4949888;28;5429;-92
2022/04/30 04:59:38;;;;;;;;;;;;;;;9.35;54.30;101655.84;4923963;29;5821;-92
2022/04/30 05:02:05;;;;;;;;;;;;;;;9.34;54.46;101652.34;4947612;29;5391;-92
2022/04/30 05:04:32;;;;;;;;;;;;;;;9.33;54.64;101648.81;4936750;29;5826;-92
2022/04/30 05:06:58;;;;;;;;;;;;;;;9.33;54.38;101648.81;4946868;28;2267;-92
2022/04/30 05:09:25;;;;;;;;;;;;;;;9.33;54.35;101648.81;4931920;29;5100;-92
2022/04/30 05:11:51;;;;;;;;;;;;;;;9.32;54.49;101649.84;4939235;29;3598;-92
2022/04/30 05:14:17;;;;;;;;;;;;;;;9.32;54.32;101651.69;4948758;29;5557;-92
2022/04/30 05:16:44;;;;;;;;;;;;;;;9.31;54.41;101647.31;4948416;29;2126;-92
2022/04/30 05:19:10;;;;;;;;;;;;;;;9.30;54.59;101659.13;4936962;29;5273;-92
2022/04/30 05:21:36;;;;;;;;;;;;;;;9.30;54.27;101651.88;4956903;29;1966;-92
2022/04/30 05:24:03;;;;;;;;;;;;;;;9.29;54.17;101655.59;4923973;29;5501;-92
2022/04/30 05:26:29;;;;;;;;;;;;;;;9.30;54.30;101662.63;4936590;29;5902;-93
2022/04/30 05:28:55;;;;;;;;;;;;;;;9.28;54.47;101656.59;4935490;29;2458;-93
2022/04/30 05:31:24;;;;;;;;;;;;;;;9.28;54.43;101659.28;4936394;29;5245;-93
2022/04/30 05:33:51;;;;;;;;;;;;;;;9.27;54.33;101660.31;4936270;28;2577;-92
2022/04/30 05:36:17;;;;;;;;;;;;;;;9.26;54.39;101655.94;4937212;29;2073;-93
2022/04/30 05:38:43;;;;;;;;;;;;;;;9.26;54.35;101655.94;4932339;29;5391;-92
2022/04/30 05:41:10;;;;;;;;;;;;;;;9.26;54.25;101665.84;4939187;29;5219;-93
2022/04/30 05:43:37;;;;;;;;;;;;;;;9.25;54.32;101658.81;4949573;29;5104;-92
2022/04/30 05:46:03;;;;;;;;;;;;;;;9.25;54.36;101656.13;4938960;29;1907;-92
2022/04/30 05:48:29;;;;;;;;;;;;;;;9.25;54.28;101659.66;4932502;29;5603;-92
2022/04/30 05:50:56;;;;;;;;;;;;;;;9.25;54.15;101665.03;4938999;29;1981;-92
2022/04/30 05:53:22;;;;;;;;;;;;;;;9.25;54.17;101666.88;4950937;28;5250;-92
2022/04/30 05:55:49;;;;;;;;;;;;;;;9.24;54.33;101666.06;4954766;29;1763;-92
2022/04/30 05:58:15;;;;;;;;;;;;;;;9.24;54.10;101660.69;4935369;29;2816;-92
2022/04/30 06:00:42;;;;;;;;;;;;;;;9.25;54.21;101669.56;4936176;29;2048;-92
2022/04/30 06:03:08;;;;;;;;;;;;;;;9.23;54.22;101667.06;4932721;29;5386;-92
2022/04/30 06:05:34;;;;;;;;;;;;;;;9.23;54.10;101652.78;4938830;29;5178;-92
2022/04/30 06:08:01;;;;;;;;;;;;;;;9.25;54.15;101664.19;4939590;29;5107;-92
2022/04/30 06:10:27;;;;;;;;;;;;;;;9.22;54.02;101657.34;4941686;29;1620;-92
2022/04/30 06:12:54;;;;;;;;;;;;;;;9.23;54.14;101663.53;4948994;29;5541;-92
2022/04/30 06:15:20;;;;;;;;;;;;;;;9.23;54.08;101663.53;4954441;29;5636;-92
2022/04/30 06:17:46;;;;;;;;;;;;;;;9.23;53.98;101660.84;4941860;29;2350;-92
2022/04/30 06:20:13;;;;;;;;;;;;;;;9.22;54.00;101654.66;4957943;28;5092;-92
2022/04/30 06:22:40;;;;;;;;;;;;;;;9.21;54.06;101655.69;4938221;29;2753;-92
2022/04/30 06:25:06;;;;;;;;;;;;;;;9.22;54.02;101659.19;4933157;29;5672;-92
2022/04/30 06:27:33;;;;;;;;;;;;;;;9.21;54.15;101654.84;4942806;29;5510;-92
2022/04/30 06:29:59;;;;;;;;;;;;;;;9.21;54.12;101654.84;4941406;29;1764;-92
2022/04/30 06:32:25;;;;;;;;;;;;;;;9.21;53.87;101652.97;4941509;29;2310;-92
2022/04/30 06:34:52;;;;;;;;;;;;;;;9.20;53.88;101650.47;4934520;29;2735;-92
2022/04/30 06:37:18;;;;;;;;;;;;;;;9.21;54.15;101654.84;4939881;29;2531;-92
2022/04/30 06:39:44;;;;;;;;;;;;;;;9.21;53.88;101649.47;4929519;29;2039;-92
2022/04/30 06:42:11;;;;;;;;;;;;;;;9.22;54.03;101653.81;4937703;28;5067;-92
2022/04/30 06:44:37;;;;;;;;;;;;;;;9.21;53.70;101652.97;4945009;28;5444;-92
2022/04/30 06:47:03;;;;;;;;;;;;;;;9.21;54.04;101657.53;4956433;29;2209;-92
2022/04/30 06:49:29;;;;;;;;;;;;;;;9.21;54.22;101650.31;4929995;29;5592;-92
2022/04/30 06:51:56;;;;;;;;;;;;;;;9.21;54.00;101646.78;4938172;29;2546;-92
2022/04/30 06:57:11;;;;;;;;;;;;;;;9.21;53.98;101654.84;4924431;28;5474;-93
2022/04/30 06:59:39;;;;;;;;;;;;;;;9.20;53.74;101647.78;4935690;29;5737;-91
2022/04/30 07:02:07;;;;;;;;;;;;;;;9.21;53.97;101650.31;4951721;28;2272;-92
2022/04/30 07:04:34;;;;;;;;;;;;;;;9.21;53.95;101650.31;4937864;29;5048;-92
2022/04/30 07:07:00;;;;;;;;;;;;;;;9.22;53.75;101643.06;4925812;29;2224;-92
2022/04/30 07:09:28;;;;;;;;;;;;;;;9.22;53.69;101649.28;4940775;29;1888;-93
2022/04/30 07:11:54;;;;;;;;;;;;;;;9.21;53.84;101647.63;4938458;29;3473;-93
2022/04/30 07:14:20;;;;;;;;;;;;;;;9.22;53.79;101648.44;4930471;29;5494;-93
2022/04/30 07:16:47;;;;;;;;;;;;;;;9.22;53.60;101640.38;4938601;29;2738;-91
2022/04/30 07:19:13;;;;;;;;;;;;;;;9.21;53.74;101641.41;4936813;29;5558;-93
2022/04/30 07:21:40;;;;;;;;;;;;;;;9.22;53.68;101646.56;4938496;28;2824;-93
2022/04/30 07:24:06;;;;;;;;;;;;;;;9.23;53.65;101650.09;4932499;29;4468;-93
2022/04/30 07:26:32;;;;;;;;;;;;;;;9.08;53.80;101624.03;4929089;29;5618;-93
2022/04/30 07:28:59;;;;;;;;;;;;;;;9.22;53.65;101643.91;4949073;29;5263;-93
2022/04/30 07:31:25;;;;;;;;;;;;;;;9.23;53.66;101644.72;4934417;29;1564;-93
2022/04/30 07:33:51;;;;;;;;;;;;;;;9.23;53.81;101642.88;4939417;29;4808;-94
2022/04/30 07:36:17;;;;;;;;;;;;;;;9.23;53.63;101642.03;4923482;29;2736;-93
2022/04/30 07:38:44;;;;;;;;;;;;;;;9.23;53.74;101642.88;4930507;29;5633;-93
2022/04/30 07:41:10;;;;;;;;;;;;;;;9.23;53.60;101642.03;4940616;29;2008;-95
2022/04/30 07:43:37;;;;;;;;;;;;;;;9.24;53.75;101641.03;4932940;29;5513;-94
2022/04/30 07:46:03;;;;;;;;;;;;;;;9.23;53.65;101637.50;4938812;29;5361;-94
2022/04/30 07:48:29;;;;;;;;;;;;;;;9.23;53.55;101648.25;4937402;29;5440;-94
2022/04/30 07:50:57;;;;;;;;;;;;;;;9.23;53.57;101637.50;4936880;29;2833;-93
2022/04/30 07:53:24;;;;;;;;;;;;;;;9.23;53.67;101639.34;4935681;29;2892;-96
2022/04/30 07:55:50;;;;;;;;;;;;;;;9.23;53.71;101637.50;4932473;29;5461;-92
2022/04/30 07:58:16;;;;;;;;;;;;;;;9.25;53.68;101648.06;4932044;29;5484;-94
2022/04/30 08:00:43;;;;;;;;;;;;;;;9.23;53.83;101645.56;4931164;29;5463;-95
2022/04/30 08:03:09;;;;;;;;;;;;;;;9.23;53.71;101637.50;4950952;28;5456;-94
2022/04/30 08:05:35;;;;;;;;;;;;;;;9.23;53.82;101640.16;4923354;29;4168;-94
2022/04/30 08:08:01;;;;;;;;;;;;;;;9.23;53.60;101639.34;4931090;28;3694;-95
2022/04/30 08:10:29;;;;;;;;;;;;;;;9.23;53.76;101632.09;4930806;28;5696;-95
2022/04/30 08:12:55;;;;;;;;;;;;;;;9.24;53.62;101636.50;4939145;29;2528;-95
2022/04/30 08:15:21;;;;;;;;;;;;;;;9.24;53.51;101632.97;4922947;29;2006;-93
2022/04/30 08:17:48;;;;;;;;;;;;;;;9.25;53.66;101631.94;4929385;29;2254;-92
2022/04/30 08:20:14;;;;;;;;;;;;;;;9.24;53.92;101628.44;4926748;29;3305;-93
2022/04/30 08:22:40;;;;;;;;;;;;;;;9.25;53.71;101627.41;4942266;28;5440;-93
2022/04/30 08:25:07;;;;;;;;;;;;;;;9.26;53.74;101628.22;4950888;29;2517;-92
2022/04/30 08:27:34;;;;;;;;;;;;;;;9.27;53.73;101632.59;4953300;29;4830;-92
2022/04/30 08:30:00;;;;;;;;;;;;;;;9.29;53.79;101627.84;4937033;29;1081;-92
2022/04/30 08:32:26;;;;;;;;;;;;;;;9.29;53.80;101627.84;4926101;29;5569;-92
2022/04/30 08:34:53;;;;;;;;;;;;;;;9.28;53.77;101613.59;4936936;29;2307;-92
2022/04/30 08:37:19;;;;;;;;;;;;;;;9.29;53.87;101628.72;4954000;29;2532;-92
2022/04/30 08:39:45;;;;;;;;;;;;;;;9.28;53.74;101621.66;4935336;29;5060;-93
2022/04/30 08:42:13;;;;;;;;;;;;;;;9.28;53.94;101621.66;4927873;29;2805;-93
2022/04/30 08:44:39;;;;;;;;;;;;;;;9.28;53.83;101618.13;4935857;29;1689;-93
2022/04/30 08:47:05;;;;;;;;;;;;;;;9.30;54.00;101613.41;4949714;29;5295;-94
2022/04/30 08:49:32;;;;;;;;;;;;;;;9.30;53.95;101608.03;4948179;29;5489;-93
2022/04/30 08:51:58;;;;;;;;;;;;;;;9.30;53.72;101606.19;4935907;28;2530;-92
2022/04/30 08:54:24;;;;;;;;;;;;;;;9.32;53.89;101603.28;4927278;29;4401;-93
2022/04/30 08:56:51;;;;;;;;;;;;;;;9.32;54.09;101605.97;4937746;28;2829;-92
2022/04/30 08:59:17;;;;;;;;;;;;;;;9.33;53.99;101611.19;4936930;29;2182;-93
2022/04/30 09:01:44;;;;;;;;;;;;;;;9.33;54.06;101608.50;4935897;29;1797;-94
2022/04/30 09:04:10;;;;;;;;;;;;;;;9.34;54.10;101606.63;4944923;29;5605;-93
2022/04/30 09:06:38;;;;;;;;;;;;;;;9.35;54.13;101613.66;4928425;29;2094;-93
2022/04/30 09:09:04;;;;;;;;;;;;;;;9.37;53.76;101610.81;4935094;29;5096;-92
2022/04/30 09:11:33;;;;;;;;;;;;;;;9.37;54.02;101610.81;4934202;29;2130;-92
2022/04/30 09:13:59;;;;;;;;;;;;;;;9.38;54.02;101613.28;4925517;29;5603;-93
2022/04/30 09:16:25;;;;;;;;;;;;;;;9.39;53.96;101611.47;4947074;29;1635;-93
2022/04/30 09:18:52;;;;;;;;;;;;;;;9.39;54.11;101606.91;4952934;29;5234;-93
2022/04/30 09:21:18;;;;;;;;;;;;;;;9.40;54.19;101613.94;4956348;29;1267;-92
2022/04/30 09:23:45;;;;;;;;;;;;;;;9.42;54.05;101608.41;4930048;29;5453;-92
2022/04/30 09:26:11;;;;;;;;;;;;;;;9.42;54.00;101611.09;4927657;29;5482;-93
2022/04/30 09:28:37;;;;;;;;;;;;;;;9.42;54.18;101614.59;4949621;28;2277;-93
2022/04/30 09:31:04;;;;;;;;;;;;;;;9.43;53.96;101607.38;4953313;29;1893;-93
2022/04/30 09:33:30;;;;;;;;;;;;;;;9.44;54.26;101607.19;4934208;29;2822;-93
2022/04/30 09:38:40;;;;;;;;;;;;;;;9.43;53.92;101602.81;4924115;29;5506;-92
2022/04/30 09:41:07;;;;;;;;;;;;;;;9.46;54.25;101598.94;4938516;29;2222;-92
2022/04/30 09:43:33;;;;;;;;;;;;;;;9.47;54.24;101590.69;4933664;29;5630;-93
2022/04/30 09:46:00;;;;;;;;;;;;;;;9.48;53.89;101595.03;4939420;29;5530;-93
2022/04/30 09:54:01;;;;;;;;;;;;;;;9.49;54.08;101577.03;4933957;29;5497;-92
2022/04/30 09:56:28;;;;;;;;;;;;;;;9.50;54.20;101573.31;4929878;29;5519;-92
2022/04/30 09:58:54;;;;;;;;;;;;;;;9.51;54.03;101573.16;4952548;28;2228;-92
2022/04/30 10:01:20;;;;;;;;;;;;;;;9.52;54.29;101563.22;4949359;29;5214;-92
2022/04/30 10:03:47;;;;;;;;;;;;;;;9.52;54.09;101561.34;4937447;29;2251;-92
2022/04/30 10:06:13;;;;;;;;;;;;;;;9.53;54.25;101567.59;4938909;29;1973;-92
2022/04/30 10:08:39;;;;;;;;;;;;;;;9.53;54.26;101563.03;4949476;29;2848;-93
2022/04/30 10:11:06;;;;;;;;;;;;;;;9.55;54.25;101554.78;4940389;29;2095;-92
2022/04/30 10:13:32;;;;;;;;;;;;;;;9.57;54.21;101550.06;4931510;29;5654;-92
2022/04/30 10:15:58;;;;;;;;;;;;;;;9.57;54.20;101547.34;4940328;29;5576;-92
2022/04/30 10:18:25;;;;;;;;;;;;;;;9.59;54.25;101547.16;4938275;29;5123;-92
2022/04/30 10:20:51;;;;;;;;;;;;;;;9.58;54.16;101537.44;4931418;29;1263;-92
2022/04/30 10:23:17;;;;;;;;;;;;;;;9.60;54.16;101540.78;4940484;28;5526;-92
2022/04/30 10:25:44;;;;;;;;;;;;;;;9.62;54.36;101544.09;4933950;29;5145;-92
2022/04/30 10:28:10;;;;;;;;;;;;;;;9.63;54.20;101543.09;4930116;29;5245;-92
2022/04/30 10:30:38;;;;;;;;;;;;;;;9.63;54.39;101543.91;4938716;29;2040;-92
2022/04/30 10:33:06;;;;;;;;;;;;;;;9.64;54.36;101531.28;4935145;29;2975;-92
2022/04/30 10:35:32;;;;;;;;;;;;;;;9.66;54.48;101534.63;4929611;29;1923;-93
2022/04/30 10:37:58;;;;;;;;;;;;;;;9.67;54.31;101531.75;4931288;29;2213;-93
2022/04/30 10:40:25;;;;;;;;;;;;;;;9.70;54.48;101530.53;4941626;29;1265;-92
2022/04/30 10:42:51;;;;;;;;;;;;;;;9.71;54.41;101526.84;4949643;29;5239;-92
2022/04/30 10:45:17;;;;;;;;;;;;;;;9.71;54.53;101522.28;4945183;29;1869;-92
2022/04/30 10:47:44;;;;;;;;;;;;;;;9.72;54.63;101521.25;4935884;29;2535;-92
2022/04/30 10:50:10;;;;;;;;;;;;;;;9.73;54.45;101514.00;4957924;29;1991;-91
2022/04/30 10:52:36;;;;;;;;;;;;;;;9.74;54.60;101513.84;4950709;28;5294;-92
2022/04/30 10:55:03;;;;;;;;;;;;;;;9.75;54.49;101504.72;4933462;29;3291;-92
2022/04/30 10:57:29;;;;;;;;;;;;;;;9.76;54.49;101494.78;4923174;29;5526;-92
2022/04/30 10:59:55;;;;;;;;;;;;;;;9.79;54.61;101499.78;4928261;29;5477;-93
2022/04/30 11:02:22;;;;;;;;;;;;;;;9.80;54.60;101495.25;4927579;29;5252;-92
2022/04/30 11:04:48;;;;;;;;;;;;;;;9.80;54.57;101497.97;4929126;29;5120;-93
2022/04/30 11:07:15;;;;;;;;;;;;;;;9.80;54.55;101493.41;4948092;28;5407;-92
2022/04/30 11:09:41;;;;;;;;;;;;;;;9.80;54.73;101490.72;4931712;29;2974;-93
2022/04/30 11:12:07;;;;;;;;;;;;;;;9.81;54.86;101496.91;4927371;29;5493;-93
2022/04/30 11:14:34;;;;;;;;;;;;;;;9.82;54.73;101498.56;4936826;29;5556;-93
2022/04/30 11:17:00;;;;;;;;;;;;;;;9.84;54.65;101493.84;4938062;29;2463;-93
2022/04/30 11:19:26;;;;;;;;;;;;;;;9.84;54.53;101493.84;4937133;29;5261;-93
2022/04/30 11:21:53;;;;;;;;;;;;;;;9.86;54.68;101499.88;4934692;29;5423;-92
2022/04/30 11:24:19;;;;;;;;;;;;;;;9.88;54.90;101498.66;4942397;28;5521;-92
2022/04/30 11:26:45;;;;;;;;;;;;;;;9.88;54.80;101490.59;4938907;29;1993;-92
2022/04/30 11:29:12;;;;;;;;;;;;;;;9.89;54.72;101484.19;4937903;29;5100;-92
2022/04/30 11:31:38;;;;;;;;;;;;;;;9.90;54.73;101488.53;4954805;29;2883;-91
2022/04/30 11:34:04;;;;;;;;;;;;;;;9.90;54.74;101493.91;4929240;29;5463;-92
2022/04/30 11:36:31;;;;;;;;;;;;;;;9.92;54.79;101485.66;4952038;29;2313;-96
2022/04/30 11:38:58;;;;;;;;;;;;;;;9.93;54.84;101488.13;4938080;29;5149;-95
2022/04/30 11:41:25;;;;;;;;;;;;;;;9.94;54.73;101481.75;4931721;29;2991;-95
2022/04/30 11:43:51;;;;;;;;;;;;;;;9.97;54.84;101488.56;4926717;29;2745;-95
2022/04/30 11:46:17;;;;;;;;;;;;;;;9.98;54.93;101480.31;4926009;29;5457;-95
2022/04/30 11:48:44;;;;;;;;;;;;;;;9.99;54.96;101484.66;4927483;29;2294;-95
2022/04/30 11:51:10;;;;;;;;;;;;;;;10.01;55.00;101484.50;4954183;29;4362;-94
2022/04/30 11:53:36;;;;;;;;;;;;;;;10.02;54.89;101483.44;4935689;28;2608;-94
2022/04/30 11:56:03;;;;;;;;;;;;;;;10.03;55.10;101479.75;4936101;28;3127;-95
2022/04/30 11:58:29;;;;;;;;;;;;;;;10.04;54.91;101481.41;4922839;29;5497;-94
2022/04/30 12:00:56;;;;;;;;;;;;;;;10.05;54.92;101477.69;4935004;29;2326;-95
2022/04/30 12:03:22;;;;;;;;;;;;;;;10.06;54.96;101475.81;4931699;29;2298;-95
2022/04/30 12:05:48;;;;;;;;;;;;;;;10.07;55.05;101472.94;4940762;29;1175;-95
2022/04/30 12:08:15;;;;;;;;;;;;;;;10.09;55.10;101468.22;4934114;29;2833;-95
2022/04/30 12:10:41;;;;;;;;;;;;;;;10.10;55.03;101474.41;4925921;29;5475;-94
2022/04/30 12:13:08;;;;;;;;;;;;;;;10.11;55.04;101470.69;4934586;29;5649;-96
2022/04/30 12:15:34;;;;;;;;;;;;;;;10.11;55.08;101471.53;4936072;29;2952;-96
2022/04/30 12:26:13;;;;;;;;;;;;;;;10.14;55.17;101454.97;4928637;29;5618;-94
2022/04/30 12:28:40;;;;;;;;;;;;;;;10.15;55.13;101451.28;4932773;29;5386;-94
2022/04/30 12:31:06;;;;;;;;;;;;;;;10.17;55.16;101459.16;4935366;29;5528;-94
2022/04/30 12:33:33;;;;;;;;;;;;;;;10.18;54.99;101456.28;4939227;29;1495;-95
2022/04/30 12:36:00;;;;;;;;;;;;;;;10.20;55.06;101459.59;4916430;29;5452;-94
2022/04/30 12:38:27;;;;;;;;;;;;;;;10.20;55.13;101448.81;4926420;29;6030;-94
2022/04/30 12:40:54;;;;;;;;;;;;;;;10.21;55.23;101455.06;4937574;29;2317;-95
2022/04/30 12:43:20;;;;;;;;;;;;;;;10.22;55.21;101454.03;4940443;29;2018;-95
2022/04/30 12:45:47;;;;;;;;;;;;;;;10.22;55.30;101444.06;4943126;29;2912;-95
2022/04/30 12:48:14;;;;;;;;;;;;;;;10.24;55.25;101443.91;4929872;29;5506;-95
2022/04/30 12:50:42;;;;;;;;;;;;;;;10.26;55.19;101444.50;4932227;29;5355;-96
2022/04/30 12:53:09;;;;;;;;;;;;;;;10.28;55.20;101441.66;4933287;29;2080;-95
2022/04/30 12:55:35;;;;;;;;;;;;;;;10.29;55.15;101444.16;4937523;29;2225;-94
2022/04/30 12:58:02;;;;;;;;;;;;;;;10.29;55.25;101441.47;4937815;29;3075;-95
2022/04/30 13:00:28;;;;;;;;;;;;;;;10.30;55.30;101439.63;4933855;29;2387;-95
2022/04/30 13:02:54;;;;;;;;;;;;;;;10.31;55.31;101441.28;4928279;29;5226;-95
2022/04/30 13:05:21;;;;;;;;;;;;;;;10.31;55.23;101444.78;4924959;29;2181;-95
2022/04/30 13:07:47;;;;;;;;;;;;;;;10.33;55.18;101444.63;4932681;29;5307;-95
2022/04/30 13:15:42;;;;;;;;;;;;;;;10.35;55.26;101431.75;4948357;28;2350;-96
2022/04/30 13:18:08;;;;;;;;;;;;;;;10.37;55.18;101429.72;4942564;28;2137;-95
2022/04/30 13:20:35;;;;;;;;;;;;;;;10.38;55.21;101431.38;4939980;29;4345;-95
2022/04/30 13:23:01;;;;;;;;;;;;;;;10.39;55.31;101430.38;4958940;29;2113;-95
2022/04/30 13:25:28;;;;;;;;;;;;;;;10.39;55.30;101436.56;4937190;29;2383;-95
2022/04/30 13:27:55;;;;;;;;;;;;;;;10.40;55.28;101432.00;4940578;29;2162;-95
2022/04/30 13:30:22;;;;;;;;;;;;;;;10.41;55.22;101429.13;4937430;29;2033;-95
2022/04/30 13:32:48;;;;;;;;;;;;;;;10.42;55.21;101430.78;4941037;29;2354;-95
2022/04/30 13:35:14;;;;;;;;;;;;;;;10.43;55.36;101426.22;4941551;29;2107;-96